Time;durP1;ratioP1;P1;durP2;ratioP2;P2;SDS_P1;SDS_P2;PMS_P1;PMS_P2;Temp;Humidity;BMP_temperature;BMP_pressure;BME280_temperature;BME280_humidity;BME280_pressure;Samples;Min_cycle;Max_cycle;Signal;HPM_P1;HPM_P2
2023/06/07 00:00:09;;;;;;;16.52;14.02;;;15.50;99.90;;;;;;5137733;27;20035;-73
2023/06/07 00:02:36;;;;;;;20.95;14.13;;;15.50;99.90;;;;;;5137613;27;20118;-73
2023/06/07 00:05:02;;;;;;;12.60;11.27;;;15.50;99.90;;;;;;5137606;27;20023;-73
2023/06/07 00:07:27;;;;;;;13.07;11.70;;;15.60;99.90;;;;;;5137255;27;20433;-73
2023/06/07 00:09:53;;;;;;;16.75;11.93;;;15.50;99.90;;;;;;5137860;27;20030;-73
2023/06/07 00:12:18;;;;;;;17.92;12.52;;;15.50;99.90;;;;;;5118651;27;20062;-73
2023/06/07 00:14:44;;;;;;;18.13;12.43;;;15.50;99.90;;;;;;5137388;27;20023;-73
2023/06/07 00:17:10;;;;;;;12.90;11.15;;;15.60;99.90;;;;;;5137204;27;20097;-72
2023/06/07 00:19:36;;;;;;;15.73;11.65;;;15.50;99.90;;;;;;5136880;27;20075;-73
2023/06/07 00:22:02;;;;;;;14.93;11.40;;;15.50;99.90;;;;;;5137013;27;20031;-73
2023/06/07 00:24:28;;;;;;;12.95;11.30;;;15.50;99.90;;;;;;5137205;27;20429;-73
2023/06/07 00:26:53;;;;;;;15.50;10.75;;;15.50;99.90;;;;;;5118758;27;20035;-73
2023/06/07 00:29:19;;;;;;;17.77;11.52;;;15.50;99.90;;;;;;5137153;27;20038;-73
2023/06/07 00:31:45;;;;;;;15.52;10.68;;;15.50;99.90;;;;;;5119148;27;20031;-72
2023/06/07 00:34:10;;;;;;;18.02;11.55;;;15.50;99.90;;;;;;5136961;27;20128;-73
2023/06/07 00:36:36;;;;;;;14.18;11.50;;;15.50;99.90;;;;;;5118507;27;20042;-73
2023/06/07 00:39:02;;;;;;;13.05;10.70;;;15.50;99.90;;;;;;5118493;27;20034;-73
2023/06/07 00:41:28;;;;;;;18.00;11.27;;;15.50;99.90;;;;;;5136964;27;20106;-73
2023/06/07 00:43:54;;;;;;;16.17;11.07;;;15.50;99.90;;;;;;5137586;27;20039;-73
2023/06/07 00:46:22;;;;;;;12.18;10.93;;;15.40;99.90;;;;;;5136471;27;20030;-72
2023/06/07 00:48:50;;;;;;;13.95;10.90;;;15.40;99.90;;;;;;5136452;27;20031;-73
2023/06/07 00:51:16;;;;;;;13.77;10.93;;;15.40;99.90;;;;;;5136704;27;20110;-72
2023/06/07 00:53:46;;;;;;;16.63;11.02;;;15.40;99.90;;;;;;5136595;27;20295;-72
2023/06/07 00:56:11;;;;;;;11.90;10.63;;;15.40;99.90;;;;;;5118231;27;20031;-72
2023/06/07 00:58:38;;;;;;;12.02;10.18;;;15.40;99.90;;;;;;5136572;27;20080;-72
2023/06/07 01:01:05;;;;;;;11.15;10.05;;;15.40;99.90;;;;;;5118084;27;20035;-72
2023/06/07 01:03:34;;;;;;;15.00;10.15;;;15.40;99.90;;;;;;5136451;27;20031;-72
2023/06/07 01:06:02;;;;;;;10.85;9.75;;;15.40;99.90;;;;;;5118014;27;20038;-72
2023/06/07 01:08:28;;;;;;;14.18;10.50;;;15.40;99.90;;;;;;5136331;27;20114;-72
2023/06/07 01:10:55;;;;;;;11.98;10.68;;;15.40;99.90;;;;;;5136571;27;20069;-72
2023/06/07 01:13:21;;;;;;;12.15;10.35;;;15.40;99.90;;;;;;5136190;27;20077;-72
2023/06/07 01:15:47;;;;;;;15.77;11.23;;;15.30;99.90;;;;;;5136198;27;20031;-72
2023/06/07 01:18:13;;;;;;;13.18;10.80;;;15.40;99.90;;;;;;5117770;27;20058;-72
2023/06/07 01:20:45;;;;;;;14.10;10.88;;;15.40;99.90;;;;;;5115652;28;20052;-72
2023/06/07 01:23:14;;;;;;;13.73;11.43;;;15.40;99.90;;;;;;5115290;28;20034;-73
2023/06/07 01:25:39;;;;;;;12.38;11.05;;;15.40;99.90;;;;;;5115627;28;20024;-72
2023/06/07 01:28:06;;;;;;;13.93;10.38;;;15.30;99.90;;;;;;5115602;28;20038;-72
2023/06/07 01:30:32;;;;;;;12.13;10.75;;;15.40;99.90;;;;;;5115075;28;20118;-73
2023/06/07 01:33:04;;;;;;;13.10;11.48;;;15.40;99.90;;;;;;5115243;28;20065;-73
2023/06/07 01:35:30;;;;;;;12.00;10.75;;;15.40;99.90;;;;;;5097122;28;20396;-73
2023/06/07 01:37:57;;;;;;;13.60;11.18;;;15.40;99.90;;;;;;5114975;28;20027;-73
2023/06/07 01:40:24;;;;;;;10.63;9.55;;;15.40;99.90;;;;;;5115166;28;20088;-73
2023/06/07 01:42:52;;;;;;;14.70;10.50;;;15.40;99.90;;;;;;5096942;28;20035;-73
2023/06/07 01:45:18;;;;;;;13.05;10.82;;;15.40;99.90;;;;;;5115089;28;20028;-73
2023/06/07 01:47:44;;;;;;;12.00;10.75;;;15.40;99.90;;;;;;5096788;28;20028;-73
2023/06/07 01:50:10;;;;;;;13.00;10.45;;;15.40;99.90;;;;;;5115057;28;20055;-72
2023/06/07 01:52:36;;;;;;;13.02;11.10;;;15.40;99.90;;;;;;5113612;28;20547;-73
2023/06/07 01:55:03;;;;;;;12.63;9.88;;;15.40;99.90;;;;;;5114918;28;20376;-73
2023/06/07 01:57:44;;;;;;;12.90;10.30;;;15.40;99.90;;;;;;5095983;28;20042;-73
2023/06/07 02:00:32;;;;;;;11.13;9.50;;;15.40;99.90;;;;;;5097092;28;20031;-72
2023/06/07 02:03:25;;;;;;;13.67;10.47;;;15.40;99.90;;;;;;5114483;28;20430;-73
2023/06/07 02:05:56;;;;;;;13.68;10.00;;;15.40;99.90;;;;;;5114739;28;20249;-72
2023/06/07 02:08:32;;;;;;;12.50;10.52;;;15.40;99.90;;;;;;5114748;28;20028;-72
2023/06/07 02:11:00;;;;;;;13.80;10.68;;;15.40;99.90;;;;;;5114687;28;20027;-72
2023/06/07 02:13:29;;;;;;;12.83;10.40;;;15.50;99.90;;;;;;5096274;28;20456;-72
2023/06/07 02:15:55;;;;;;;12.02;10.15;;;15.50;99.90;;;;;;5096324;28;20034;-72
2023/06/07 02:18:21;;;;;;;14.00;10.27;;;15.50;99.90;;;;;;5115272;28;20114;-73
2023/06/07 02:20:47;;;;;;;11.55;10.35;;;15.50;99.90;;;;;;5135277;27;20122;-73
2023/06/07 02:23:13;;;;;;;11.05;9.88;;;15.50;99.90;;;;;;5135243;27;20074;-73
2023/06/07 02:25:38;;;;;;;12.73;10.57;;;15.50;99.90;;;;;;5135107;27;20023;-73
2023/06/07 02:28:04;;;;;;;12.38;10.43;;;15.50;99.90;;;;;;5134679;27;20031;-73
2023/06/07 02:30:30;;;;;;;14.02;10.55;;;15.50;99.90;;;;;;5116888;27;20034;-73
2023/06/07 02:32:56;;;;;;;13.82;10.93;;;15.50;99.90;;;;;;5116412;27;20584;-73
2023/06/07 02:35:22;;;;;;;11.88;10.02;;;15.50;99.90;;;;;;5116509;27;20034;-73
2023/06/07 02:37:47;;;;;;;11.73;10.50;;;15.50;99.90;;;;;;5116410;28;20134;-73
2023/06/07 02:40:14;;;;;;;11.20;10.05;;;15.50;99.90;;;;;;5134464;27;20062;-73
2023/06/07 02:42:45;;;;;;;12.32;9.93;;;15.50;99.90;;;;;;5134492;27;20027;-73
2023/06/07 02:45:11;;;;;;;10.50;9.40;;;15.50;99.90;;;;;;5116301;28;20049;-72
2023/06/07 02:47:36;;;;;;;11.38;9.95;;;15.50;99.90;;;;;;5134702;28;20449;-73
2023/06/07 02:50:03;;;;;;;12.32;10.30;;;15.50;99.90;;;;;;5116208;28;20084;-72
2023/06/07 02:52:29;;;;;;;12.13;10.32;;;15.50;99.90;;;;;;5116152;28;20035;-73
2023/06/07 02:54:55;;;;;;;11.50;9.85;;;15.50;99.90;;;;;;5134296;28;20035;-73
2023/06/07 02:57:20;;;;;;;12.32;10.07;;;15.50;99.90;;;;;;5116723;28;20096;-73
2023/06/07 02:59:47;;;;;;;13.02;10.60;;;15.50;99.90;;;;;;5134855;28;20070;-73
2023/06/07 03:02:13;;;;;;;11.38;10.07;;;15.50;99.90;;;;;;5116202;28;20123;-72
2023/06/07 03:04:40;;;;;;;11.45;10.20;;;15.50;99.90;;;;;;5134528;28;20062;-72
2023/06/07 03:07:06;;;;;;;11.57;10.30;;;15.50;99.90;;;;;;5134809;28;20484;-73
2023/06/07 03:09:32;;;;;;;13.02;10.38;;;15.50;99.90;;;;;;5120268;27;20123;-72
2023/06/07 03:11:57;;;;;;;16.52;11.07;;;15.50;99.90;;;;;;5120222;27;20034;-73
2023/06/07 03:14:23;;;;;;;12.65;10.38;;;15.50;99.90;;;;;;5120145;27;20047;-73
2023/06/07 03:16:49;;;;;;;12.32;10.55;;;15.60;99.90;;;;;;5119875;27;20042;-73
2023/06/07 03:19:15;;;;;;;12.82;10.63;;;15.50;99.90;;;;;;5120336;27;20051;-73
2023/06/07 03:21:44;;;;;;;14.50;11.18;;;15.50;99.90;;;;;;5120120;27;20126;-73
2023/06/07 03:24:13;;;;;;;14.02;11.65;;;15.60;99.90;;;;;;5120198;27;20420;-73
2023/06/07 03:26:41;;;;;;;;;;;15.60;99.90;;;;;;5120615;27;20027;-73
2023/06/07 03:29:07;;;;;;;14.93;11.25;;;15.60;99.90;;;;;;5137424;27;20015;-73
2023/06/07 03:31:33;;;;;;;14.30;12.15;;;15.60;99.90;;;;;;5137972;27;20028;-73
2023/06/07 03:33:59;;;;;;;14.98;11.07;;;15.60;99.90;;;;;;5119642;27;20039;-73
2023/06/07 03:36:28;;;;;;;13.45;11.80;;;15.60;99.90;;;;;;5120212;27;20057;-73
2023/06/07 03:38:58;;;;;;;14.65;11.77;;;15.60;99.90;;;;;;5119725;27;20036;-73
2023/06/07 03:41:25;;;;;;;14.68;12.27;;;15.60;99.90;;;;;;5138048;27;20027;-73
2023/06/07 03:43:51;;;;;;;18.63;11.65;;;15.60;99.90;;;;;;5138278;27;20118;-72
2023/06/07 03:46:17;;;;;;;13.68;11.90;;;15.60;99.90;;;;;;5119456;27;20114;-72
2023/06/07 03:48:43;;;;;;;13.43;11.20;;;15.60;99.90;;;;;;5137915;27;20031;-72
2023/06/07 03:51:08;;;;;;;14.32;11.90;;;15.60;99.90;;;;;;5137862;27;20039;-72
2023/06/07 03:53:34;;;;;;;14.00;12.10;;;15.60;99.90;;;;;;5137731;27;20042;-72
2023/06/07 03:56:00;;;;;;;14.63;11.80;;;15.60;99.90;;;;;;5119331;27;20105;-72
2023/06/07 03:58:26;;;;;;;14.95;12.75;;;15.60;99.90;;;;;;5137747;27;20039;-73
2023/06/07 04:00:52;;;;;;;16.35;12.07;;;15.60;99.90;;;;;;5137626;27;20128;-75
2023/06/07 04:03:24;;;;;;;14.77;11.68;;;15.60;99.90;;;;;;5137659;27;20033;-74
2023/06/07 04:05:50;;;;;;;17.30;11.68;;;15.60;99.90;;;;;;5137684;27;20023;-73
2023/06/07 04:08:16;;;;;;;15.10;12.32;;;15.60;99.90;;;;;;5137249;27;20058;-71
2023/06/07 04:10:42;;;;;;;13.52;12.00;;;15.60;99.90;;;;;;5119112;27;20061;-64
2023/06/07 04:13:08;;;;;;;14.20;12.20;;;15.60;99.90;;;;;;5137355;27;20035;-65
2023/06/07 04:15:33;;;;;;;15.43;12.05;;;15.60;99.90;;;;;;5137345;27;20030;-65
2023/06/07 04:17:59;;;;;;;14.13;11.63;;;15.70;99.90;;;;;;5136922;27;20031;-72
2023/06/07 04:20:25;;;;;;;16.63;11.75;;;15.70;99.90;;;;;;5136768;27;20043;-72
2023/06/07 04:22:52;;;;;;;15.60;11.82;;;15.70;99.90;;;;;;5137535;27;20027;-71
2023/06/07 04:25:21;;;;;;;15.30;11.43;;;15.60;99.90;;;;;;5118957;27;20047;-70
2023/06/07 04:27:48;;;;;;;14.65;11.80;;;15.60;99.90;;;;;;5131344;27;20407;-71
2023/06/07 04:30:15;;;;;;;14.80;12.30;;;15.70;99.90;;;;;;5116605;28;20118;-72
2023/06/07 04:32:43;;;;;;;13.32;11.60;;;15.70;99.90;;;;;;5116402;28;20030;-72
2023/06/07 04:35:08;;;;;;;12.63;10.63;;;15.70;99.90;;;;;;5116383;28;20024;-72
2023/06/07 04:37:34;;;;;;;13.68;11.27;;;15.70;99.90;;;;;;5098088;28;20027;-76
2023/06/07 04:40:00;;;;;;;14.00;12.30;;;15.70;99.90;;;;;;5097791;28;20488;-76
2023/06/07 04:42:27;;;;;;;12.60;11.30;;;15.70;99.90;;;;;;5116274;28;20074;-77
2023/06/07 04:44:53;;;;;;;14.73;12.38;;;15.70;99.90;;;;;;5097869;28;20176;-73
2023/06/07 04:47:19;;;;;;;14.32;11.90;;;15.70;99.90;;;;;;5116111;28;20107;-65
2023/06/07 04:49:46;;;;;;;13.93;11.23;;;15.70;99.90;;;;;;5116100;28;20031;-62
2023/06/07 04:52:19;;;;;;;13.90;12.02;;;15.70;99.90;;;;;;5116062;28;20036;-62
2023/06/07 04:54:46;;;;;;;13.20;11.00;;;15.70;99.90;;;;;;5116068;28;20499;-62
2023/06/07 04:57:13;;;;;;;17.13;11.93;;;15.80;99.90;;;;;;5116207;28;20107;-64
2023/06/07 04:59:43;;;;;;;13.65;12.30;;;15.80;99.90;;;;;;5115908;28;20047;-64
2023/06/07 05:02:09;;;;;;;13.40;11.32;;;15.80;99.90;;;;;;5115888;28;20373;-64
2023/06/07 05:04:35;;;;;;;13.25;11.90;;;15.80;99.90;;;;;;5115977;28;20089;-76
2023/06/07 05:07:00;;;;;;;13.68;10.90;;;15.90;99.90;;;;;;5097477;28;20036;-75
2023/06/07 05:09:26;;;;;;;12.60;11.30;;;15.90;99.90;;;;;;5115741;28;20028;-77
2023/06/07 05:11:52;;;;;;;12.55;10.02;;;15.90;99.90;;;;;;5115417;28;20036;-76
2023/06/07 05:14:18;;;;;;;13.00;10.55;;;15.90;99.90;;;;;;5097394;28;20106;-74
2023/06/07 05:16:44;;;;;;;11.05;9.73;;;15.90;99.90;;;;;;5115303;28;20032;-62
2023/06/07 05:19:13;;;;;;;11.55;9.32;;;15.90;99.90;;;;;;5114995;28;20054;-62
2023/06/07 05:21:40;;;;;;;13.77;9.73;;;15.90;99.90;;;;;;5115992;28;20023;-62
2023/06/07 05:24:06;;;;;;;14.68;10.73;;;15.90;99.90;;;;;;5115599;28;20071;-63
2023/06/07 05:26:31;;;;;;;14.32;11.10;;;15.90;99.90;;;;;;5115352;28;20055;-63
2023/06/07 05:28:57;;;;;;;12.43;10.38;;;16.00;99.90;;;;;;5114938;28;20067;-62
2023/06/07 05:31:23;;;;;;;12.23;10.80;;;16.00;99.90;;;;;;5096075;28;20032;-76
2023/06/07 05:33:49;;;;;;;12.23;10.93;;;16.00;99.90;;;;;;5097042;28;20039;-76
2023/06/07 05:36:14;;;;;;;15.25;10.98;;;16.00;99.90;;;;;;5115245;28;20028;-77
2023/06/07 05:38:40;;;;;;;11.80;10.52;;;16.00;99.90;;;;;;5096958;28;20144;-77
2023/06/07 05:41:07;;;;;;;14.70;11.88;;;16.00;99.90;;;;;;5115089;28;20028;-77
2023/06/07 05:43:32;;;;;;;12.73;11.02;;;16.10;99.90;;;;;;5115029;28;20073;-77
2023/06/07 05:45:58;;;;;;;14.18;11.60;;;16.00;99.90;;;;;;5115013;28;20031;-73
2023/06/07 05:48:24;;;;;;;12.52;11.20;;;16.00;99.90;;;;;;5115211;28;20380;-73
2023/06/07 05:50:49;;;;;;;12.35;11.07;;;16.10;99.90;;;;;;5114692;28;20069;-73
2023/06/07 05:53:16;;;;;;;14.20;11.88;;;16.10;99.90;;;;;;5114861;28;20035;-73
2023/06/07 05:55:42;;;;;;;14.25;12.75;;;16.10;99.90;;;;;;5115181;28;20112;-73
2023/06/07 05:58:09;;;;;;;13.32;11.48;;;16.10;99.90;;;;;;5115348;28;20122;-73
2023/06/07 06:00:35;;;;;;;14.25;11.70;;;16.20;99.90;;;;;;5114694;28;20465;-73
2023/06/07 06:03:01;;;;;;;16.15;12.45;;;16.10;99.90;;;;;;5096543;28;20040;-73
2023/06/07 06:05:27;;;;;;;17.00;14.38;;;16.10;99.90;;;;;;5114948;28;20035;-73
2023/06/07 06:07:56;;;;;;;15.52;12.73;;;16.10;99.90;;;;;;5114556;28;20350;-73
2023/06/07 06:10:25;;;;;;;14.43;12.30;;;16.20;99.90;;;;;;5114179;28;20038;-73
2023/06/07 06:12:51;;;;;;;;;;;16.20;99.90;;;;;;5096514;28;20050;-73
2023/06/07 06:15:17;;;;;;;14.23;12.68;;;16.30;99.90;;;;;;5114395;28;19908;-73
2023/06/07 06:17:42;;;;;;;15.63;13.98;;;16.30;99.90;;;;;;5096411;28;20050;-73
2023/06/07 06:20:08;;;;;;;16.10;13.13;;;16.40;99.90;;;;;;5115078;28;20109;-73
2023/06/07 06:22:34;;;;;;;15.98;13.07;;;16.40;99.90;;;;;;5114451;28;20050;-73
2023/06/07 06:25:00;;;;;;;17.80;14.00;;;16.50;99.90;;;;;;5114427;28;20027;-74
2023/06/07 06:27:26;;;;;;;14.60;12.68;;;16.60;99.90;;;;;;5114350;28;20464;-74
2023/06/07 06:29:51;;;;;;;13.57;11.73;;;16.60;99.90;;;;;;5114082;28;20103;-73
2023/06/07 06:32:17;;;;;;;11.63;10.43;;;16.70;99.90;;;;;;5096094;28;20460;-73
2023/06/07 06:34:44;;;;;;;15.02;12.77;;;16.70;99.90;;;;;;5114239;28;20039;-72
2023/06/07 06:37:10;;;;;;;13.40;10.75;;;16.70;99.90;;;;;;5114243;28;20034;-74
2023/06/07 06:39:35;;;;;;;12.07;10.88;;;16.70;99.90;;;;;;5095650;28;20032;-74
2023/06/07 06:42:01;;;;;;;12.05;10.07;;;16.70;99.90;;;;;;5095619;28;20044;-73
2023/06/07 06:44:27;;;;;;;11.40;10.18;;;16.70;99.90;;;;;;5113750;28;20035;-73
2023/06/07 06:46:52;;;;;;;11.52;9.95;;;16.80;99.90;;;;;;5113862;28;20035;-73
2023/06/07 06:49:18;;;;;;;11.57;10.20;;;16.80;99.90;;;;;;5095825;28;20039;-73
2023/06/07 06:51:45;;;;;;;11.55;9.60;;;16.90;99.90;;;;;;5095748;28;20501;-73
2023/06/07 06:54:12;;;;;;;13.02;10.00;;;16.90;99.90;;;;;;5095739;28;20050;-73
2023/06/07 06:56:37;;;;;;;8.88;8.00;;;17.00;99.90;;;;;;5114558;28;20070;-73
2023/06/07 06:59:03;;;;;;;10.18;9.05;;;16.90;99.90;;;;;;5114099;28;20082;-74
2023/06/07 07:01:43;;;;;;;10.30;8.55;;;16.90;99.90;;;;;;5114138;28;20028;-73
2023/06/07 07:04:08;;;;;;;8.10;7.35;;;16.90;99.90;;;;;;5114032;28;20059;-75
2023/06/07 07:06:34;;;;;;;9.93;8.35;;;16.90;99.90;;;;;;5113684;28;20460;-74
2023/06/07 07:09:00;;;;;;;11.60;8.90;;;16.90;99.90;;;;;;5095251;28;20036;-74
2023/06/07 07:11:26;;;;;;;11.10;9.27;;;16.90;99.90;;;;;;5095694;28;20028;-74
2023/06/07 07:13:52;;;;;;;9.30;8.40;;;16.90;99.90;;;;;;5113785;28;20039;-74
2023/06/07 07:16:17;;;;;;;12.52;8.85;;;16.90;99.90;;;;;;5113764;28;20055;-74
2023/06/07 07:18:43;;;;;;;11.20;8.20;;;16.90;99.90;;;;;;5113724;28;20132;-74
2023/06/07 07:21:08;;;;;;;11.25;8.27;;;16.90;99.90;;;;;;5095633;28;20039;-74
2023/06/07 07:23:34;;;;;;;8.48;7.68;;;16.90;99.90;;;;;;5095441;28;20438;-74
2023/06/07 07:26:00;;;;;;;8.68;7.82;;;16.90;99.90;;;;;;5113862;28;20123;-75
2023/06/07 07:28:25;;;;;;;9.00;7.82;;;16.90;99.90;;;;;;5113630;28;20122;-74
2023/06/07 07:30:51;;;;;;;7.30;6.63;;;16.90;99.90;;;;;;5113305;28;20106;-75
2023/06/07 07:33:17;;;;;;;7.55;6.85;;;17.00;99.90;;;;;;5113863;28;20453;-74
2023/06/07 07:35:42;;;;;;;9.20;8.23;;;17.10;99.90;;;;;;5113669;28;20027;-75
2023/06/07 07:38:08;;;;;;;6.90;6.18;;;17.20;99.90;;;;;;5095448;28;20069;-77
2023/06/07 07:40:33;;;;;;;7.47;6.78;;;17.20;99.90;;;;;;5113552;28;20388;-74
2023/06/07 07:42:59;;;;;;;6.95;6.30;;;17.30;99.90;;;;;;5113737;28;20047;-74
2023/06/07 07:45:25;;;;;;;8.00;7.30;;;17.30;99.90;;;;;;5113788;28;20031;-74
2023/06/07 07:47:51;;;;;;;8.38;7.00;;;17.30;99.90;;;;;;5113260;28;20519;-74
2023/06/07 07:50:17;;;;;;;7.07;6.38;;;17.30;99.90;;;;;;5095246;28;20058;-73
2023/06/07 07:52:42;;;;;;;7.07;6.38;;;17.30;99.90;;;;;;5095564;28;20074;-63
2023/06/07 07:55:08;;;;;;;7.30;6.40;;;17.30;99.90;;;;;;5114723;28;20464;-63
2023/06/07 07:57:34;;;;;;;6.88;6.28;;;17.30;99.90;;;;;;5117189;28;20039;-63
2023/06/07 08:00:00;;;;;;;6.68;5.97;;;17.30;99.90;;;;;;5117180;28;20032;-63
2023/06/07 08:02:25;;;;;;;7.88;6.35;;;17.40;99.90;;;;;;5117061;28;20027;-63
2023/06/07 08:04:53;;;;;;;6.50;5.60;;;17.40;99.90;;;;;;5116905;28;20031;-63
2023/06/07 08:07:19;;;;;;;6.63;6.03;;;17.40;99.90;;;;;;5117009;28;20088;-63
2023/06/07 08:09:45;;;;;;;8.23;6.22;;;17.50;99.90;;;;;;5116693;28;20039;-64
2023/06/07 08:12:10;;;;;;;10.57;6.20;;;17.50;99.90;;;;;;5117543;28;20380;-63
2023/06/07 08:14:36;;;;;;;7.20;6.55;;;17.50;99.90;;;;;;5116814;28;20036;-63
2023/06/07 08:17:02;;;;;;;6.82;6.22;;;17.60;99.90;;;;;;5099404;28;20495;-63
2023/06/07 08:19:27;;;;;;;7.10;6.38;;;17.70;99.90;;;;;;5116344;28;20192;-63
2023/06/07 08:21:53;;;;;;;6.63;6.03;;;17.80;99.90;;;;;;5116759;28;20036;-63
2023/06/07 08:24:19;;;;;;;7.60;6.18;;;17.90;99.90;;;;;;5116720;28;20035;-63
2023/06/07 08:26:45;;;;;;;5.97;5.40;;;18.00;99.90;;;;;;5116680;28;20028;-63
2023/06/07 08:29:11;;;;;;;6.43;5.82;;;18.00;99.90;;;;;;5116506;28;20089;-63
2023/06/07 08:31:43;;;;;;;10.35;6.03;;;18.00;99.90;;;;;;5098196;28;20079;-63
2023/06/07 08:34:09;;;;;;;5.93;5.43;;;18.20;99.90;;;;;;5116777;28;20093;-63
2023/06/07 08:36:36;;;;;;;6.88;6.28;;;18.30;99.90;;;;;;5116475;28;20032;-63
2023/06/07 08:39:02;;;;;;;8.40;6.03;;;18.40;99.90;;;;;;5116623;28;20524;-63
2023/06/07 08:41:27;;;;;;;5.80;5.30;;;18.40;99.90;;;;;;5081649;28;20122;-63
2023/06/07 08:43:53;;;;;;;5.72;5.22;;;18.40;99.90;;;;;;5116240;28;20412;-63
2023/06/07 08:46:20;;;;;;;5.40;4.82;;;18.50;99.90;;;;;;5116522;28;20457;-63
2023/06/07 08:48:48;;;;;;;5.75;5.25;;;18.50;99.90;;;;;;5116221;28;20031;-63
2023/06/07 08:51:16;;;;;;;5.97;5.00;;;18.60;99.90;;;;;;5116148;28;20041;-63
2023/06/07 08:53:45;;;;;;;6.10;5.50;;;18.70;99.90;;;;;;5116143;28;20039;-63
2023/06/07 08:56:12;;;;;;;13.15;9.90;;;18.80;99.90;;;;;;5116076;28;20261;-63
2023/06/07 08:58:39;;;;;;;13.43;6.93;;;18.80;99.90;;;;;;5116276;28;20023;-63
2023/06/07 09:01:05;;;;;;;7.70;6.45;;;18.90;99.90;;;;;;5116179;28;20032;-63
2023/06/07 09:03:31;;;;;;;7.45;4.78;;;18.90;99.90;;;;;;5097782;28;20043;-63
2023/06/07 09:05:57;;;;;;;5.63;5.03;;;18.80;99.90;;;;;;5097217;28;20040;-63
2023/06/07 09:08:22;;;;;;;6.40;5.60;;;18.90;99.90;;;;;;5115477;28;20074;-63
2023/06/07 09:10:48;;;;;;;6.03;5.43;;;19.00;99.90;;;;;;5115800;28;20072;-63
2023/06/07 09:13:20;;;;;;;5.30;4.90;;;19.00;99.90;;;;;;5115945;28;20036;-63
2023/06/07 09:15:52;;;;;;;5.30;4.85;;;19.00;99.90;;;;;;5115789;28;20070;-63
2023/06/07 09:18:18;;;;;;;4.95;4.47;;;19.10;99.90;;;;;;5115436;28;20544;-63
2023/06/07 09:20:43;;;;;;;4.82;4.30;;;19.20;99.90;;;;;;5115586;28;20032;-63
2023/06/07 09:23:14;;;;;;;6.25;4.00;;;19.20;99.90;;;;;;5115637;28;20474;-63
2023/06/07 09:25:44;;;;;;;5.20;4.70;;;19.20;99.90;;;;;;5097944;28;20032;-63
2023/06/07 09:28:12;;;;;;;5.03;4.38;;;19.20;99.90;;;;;;5115489;28;20472;-63
2023/06/07 09:30:55;;;;;;;7.00;5.28;;;19.30;99.90;;;;;;5115192;28;20129;-63
2023/06/07 09:33:39;;;;;;;5.35;4.85;;;19.50;99.90;;;;;;5115253;28;20071;-63
2023/06/07 09:36:15;;;;;;;5.63;5.13;;;19.60;99.90;;;;;;5115302;28;20035;-63
2023/06/07 09:38:41;;;;;;;6.72;6.13;;;19.70;99.90;;;;;;5115217;28;20050;-63
2023/06/07 09:41:09;;;;;;;6.55;5.32;;;19.80;99.90;;;;;;5115387;28;20547;-63
2023/06/07 09:43:54;;;;;;;6.28;5.68;;;19.90;99.90;;;;;;5115228;28;20114;-63
2023/06/07 09:46:20;;;;;;;6.60;5.90;;;20.00;99.90;;;;;;5115092;28;20054;-63
2023/06/07 09:48:50;;;;;;;8.40;6.32;;;20.10;99.90;;;;;;5114658;28;20027;-63
2023/06/07 09:51:18;;;;;;;7.50;6.80;;;20.00;99.90;;;;;;5115013;28;20073;-63
2023/06/07 09:53:56;;;;;;;9.05;7.05;;;20.10;99.90;;;;;;5114831;28;20469;-63
2023/06/07 09:56:23;;;;;;;7.20;6.55;;;20.30;99.90;;;;;;5114807;28;20058;-63
2023/06/07 09:59:06;;;;;;;8.35;6.88;;;20.50;99.90;;;;;;5114727;28;20027;-63
2023/06/07 10:01:37;;;;;;;8.18;6.90;;;20.50;99.90;;;;;;5115014;28;20039;-63
2023/06/07 10:04:05;;;;;;;7.45;6.25;;;20.40;99.90;;;;;;5114919;28;20391;-63
2023/06/07 10:06:35;;;;;;;6.22;5.72;;;20.50;99.90;;;;;;5096967;28;20036;-63
2023/06/07 10:09:03;;;;;;;9.15;6.35;;;20.70;99.90;;;;;;5115041;28;20070;-63
2023/06/07 10:11:33;;;;;;;7.68;5.45;;;21.10;99.90;;;;;;5114597;28;20028;-63
2023/06/07 10:14:20;;;;;;;6.38;5.80;;;21.70;99.90;;;;;;5114506;28;20122;-63
2023/06/07 10:17:18;;;;;;;5.90;5.40;;;22.50;99.90;;;;;;5114570;28;20036;-61
2023/06/07 10:19:47;;;;;;;5.88;5.28;;;23.70;99.90;;;;;;5058888;28;20097;-61
2023/06/07 10:22:28;;;;;;;6.55;5.93;;;24.50;99.90;;;;;;5114448;28;20047;-62
2023/06/07 10:25:12;;;;;;;5.38;4.93;;;24.60;99.90;;;;;;5114481;28;20040;-60
2023/06/07 10:27:46;;;;;;;7.70;5.40;;;24.30;99.90;;;;;;5114922;28;20050;-60
2023/06/07 10:30:14;;;;;;;7.63;5.13;;;24.30;99.90;;;;;;5115064;28;20055;-63
2023/06/07 10:32:41;;;;;;;6.00;5.40;;;24.50;99.90;;;;;;5114422;28;20078;-63
2023/06/07 10:35:09;;;;;;;5.50;5.10;;;24.60;99.90;;;;;;5114185;28;20092;-63
2023/06/07 10:37:40;;;;;;;6.32;5.68;;;24.60;99.90;;;;;;5114143;28;20365;-63
2023/06/07 10:40:11;;;;;;;6.57;6.07;;;24.60;99.90;;;;;;5114744;28;20121;-63
2023/06/07 10:42:43;;;;;;;7.07;6.38;;;24.40;99.90;;;;;;5114231;28;20038;-63
2023/06/07 10:45:15;;;;;;;7.13;5.97;;;24.60;99.90;;;;;;5114128;28;20028;-62
2023/06/07 10:47:44;;;;;;;6.80;6.20;;;24.70;99.90;;;;;;5114032;28;20027;-62
2023/06/07 10:50:28;;;;;;;6.18;5.57;;;24.70;99.90;;;;;;5113868;28;20024;-62
2023/06/07 10:52:58;;;;;;;6.57;6.07;;;25.30;99.90;;;;;;5095710;28;20385;-62
2023/06/07 10:55:31;;;;;;;6.55;5.90;;;25.30;99.90;;;;;;5096029;28;20130;-62
2023/06/07 10:58:00;;;;;;;11.05;6.28;;;25.70;99.90;;;;;;5114453;28;20035;-62
2023/06/07 11:00:33;;;;;;;;;;;25.90;99.90;;;;;;5114393;28;20110;-62
2023/06/07 11:03:05;;;;;;;6.43;5.50;;;26.20;99.90;;;;;;5095640;28;20252;-62
2023/06/07 11:05:52;;;;;;;6.05;5.28;;;26.60;99.90;;;;;;5113867;28;20095;-62
2023/06/07 11:08:28;;;;;;;4.93;4.53;;;26.50;99.00;;;;;;5113802;28;20036;-63
2023/06/07 11:10:58;;;;;;;5.07;4.57;;;26.40;99.90;;;;;;5113791;28;20040;-62
2023/06/07 11:13:27;;;;;;;5.10;4.60;;;26.40;98.10;;;;;;5113947;28;20039;-62
2023/06/07 11:16:13;;;;;;;5.25;4.75;;;26.20;98.80;;;;;;5095481;28;20027;-62
2023/06/07 11:18:55;;;;;;;5.72;4.93;;;26.10;98.10;;;;;;5113411;28;20097;-62
2023/06/07 11:21:21;;;;;;;5.60;5.00;;;26.00;98.10;;;;;;5113800;28;20114;-63
2023/06/07 11:24:10;;;;;;;5.57;5.03;;;26.20;98.60;;;;;;5113658;28;20046;-63
2023/06/07 11:26:36;;;;;;;5.40;5.00;;;26.50;98.50;;;;;;5095616;28;20123;-63
2023/06/07 11:29:04;;;;;;;5.38;4.80;;;26.90;98.00;;;;;;5114855;28;20114;-63
2023/06/07 11:31:30;;;;;;;10.43;5.10;;;26.40;97.10;;;;;;5098949;28;20096;-62
2023/06/07 11:33:56;;;;;;;6.20;5.60;;;26.10;97.30;;;;;;5117339;28;20059;-62
2023/06/07 11:36:21;;;;;;;9.95;5.53;;;26.30;97.00;;;;;;5117596;28;20068;-62
2023/06/07 11:38:49;;;;;;;5.85;5.25;;;26.90;95.40;;;;;;5117508;28;20057;-63
2023/06/07 11:41:15;;;;;;;6.07;5.57;;;27.60;96.00;;;;;;5117464;28;20461;-63
2023/06/07 11:43:40;;;;;;;5.30;4.80;;;28.20;94.30;;;;;;5117292;28;20047;-62
2023/06/07 11:46:06;;;;;;;6.93;5.00;;;28.70;93.00;;;;;;5117435;28;20024;-63
2023/06/07 11:48:32;;;;;;;5.30;4.80;;;29.20;91.60;;;;;;5117401;28;20487;-63
2023/06/07 11:50:59;;;;;;;4.78;4.38;;;28.80;89.00;;;;;;5117671;28;20549;-63
2023/06/07 11:53:28;;;;;;;4.95;4.55;;;28.60;87.80;;;;;;5098766;28;20473;-62
2023/06/07 11:55:55;;;;;;;5.22;4.80;;;28.90;90.40;;;;;;5117137;28;20028;-62
2023/06/07 11:58:22;;;;;;;6.82;4.80;;;29.00;88.50;;;;;;5099098;28;20073;-62
2023/06/07 12:00:49;;;;;;;5.28;4.80;;;28.50;88.60;;;;;;5117159;28;20043;-62
2023/06/07 12:03:16;;;;;;;5.28;4.85;;;27.80;89.10;;;;;;5116661;28;20514;-62
2023/06/07 12:05:44;;;;;;;5.07;4.68;;;27.80;89.20;;;;;;5116764;28;20418;-62
2023/06/07 12:08:13;;;;;;;5.20;4.80;;;27.80;88.80;;;;;;5098339;28;20035;-62
2023/06/07 12:10:39;;;;;;;5.20;4.72;;;27.20;89.10;;;;;;5098758;28;20042;-62
2023/06/07 12:13:18;;;;;;;6.80;4.70;;;26.90;90.50;;;;;;5116814;28;20092;-62
2023/06/07 12:16:00;;;;;;;5.03;4.47;;;27.00;90.80;;;;;;5116593;28;20365;-62
2023/06/07 12:18:28;;;;;;;5.03;4.57;;;26.80;91.00;;;;;;5116457;28;20062;-62
2023/06/07 12:21:05;;;;;;;6.65;4.53;;;26.80;91.90;;;;;;5116745;28;20039;-62
2023/06/07 12:23:31;;;;;;;4.93;4.43;;;26.70;92.20;;;;;;5098500;28;20035;-62
2023/06/07 12:26:17;;;;;;;4.78;4.38;;;27.10;90.60;;;;;;5116568;28;20036;-62
2023/06/07 12:28:43;;;;;;;4.50;4.10;;;26.90;90.60;;;;;;5116647;28;20059;-62
2023/06/07 12:31:23;;;;;;;4.47;4.07;;;27.40;90.80;;;;;;5116288;28;20034;-62
2023/06/07 12:33:56;;;;;;;4.47;4.10;;;27.90;87.10;;;;;;5116368;28;20047;-62
2023/06/07 12:36:33;;;;;;;5.97;4.40;;;28.20;85.40;;;;;;5116318;28;20067;-71
2023/06/07 12:39:00;;;;;;;4.25;3.95;;;28.30;84.90;;;;;;5116770;28;20062;-71